Time;durP1;ratioP1;P1;durP2;ratioP2;P2;SDS_P1;SDS_P2;PMS_P1;PMS_P2;Temp;Humidity;BMP_temperature;BMP_pressure;BME280_temperature;BME280_humidity;BME280_pressure;Samples;Min_cycle;Max_cycle;Signal;HPM_P1;HPM_P2
2023/09/09 00:01:59;;;;;;;0.20;0.17;;;;;;;;;;4868359;29;20060;-76
2023/09/09 00:04:26;;;;;;;0.10;0.10;;;;;;;;;;4867777;29;20452;-76
2023/09/09 00:06:55;;;;;;;0.00;0.00;;;;;;;;;;4870203;29;20056;-76
2023/09/09 00:09:23;;;;;;;0.08;0.08;;;;;;;;;;4867969;29;20598;-76
2023/09/09 00:11:51;;;;;;;0.00;0.00;;;;;;;;;;4870516;29;20056;-76
2023/09/09 00:14:18;;;;;;;0.00;0.00;;;;;;;;;;4868406;29;20068;-75
2023/09/09 00:16:45;;;;;;;0.00;0.00;;;;;;;;;;4859438;29;20049;-75
2023/09/09 00:19:13;;;;;;;1.02;1.02;;;;;;;;;;4864965;29;20050;-75
2023/09/09 00:21:41;;;;;;;1.25;1.15;;;;;;;;;;4866888;29;20236;-76
2023/09/09 00:24:09;;;;;;;0.00;0.00;;;;;;;;;;4866468;29;20053;-75
2023/09/09 00:26:36;;;;;;;0.32;0.17;;;;;;;;;;4862140;29;20124;-76
2023/09/09 00:29:03;;;;;;;0.22;0.10;;;;;;;;;;4870712;29;20504;-76
2023/09/09 00:31:31;;;;;;;0.50;0.50;;;;;;;;;;4868428;29;20383;-76
2023/09/09 00:34:00;;;;;;;0.10;0.10;;;;;;;;;;4871892;29;20056;-76
2023/09/09 00:36:27;;;;;;;0.50;0.50;;;;;;;;;;4868091;29;20053;-76
2023/09/09 00:38:55;;;;;;;0.80;0.80;;;;;;;;;;4853669;29;20076;-76
2023/09/09 00:41:23;;;;;;;0.32;0.32;;;;;;;;;;4848503;29;20060;-75
2023/09/09 00:43:51;;;;;;;0.03;0.00;;;;;;;;;;4866427;29;20062;-76
2023/09/09 00:46:19;;;;;;;0.20;0.20;;;;;;;;;;4860980;29;20049;-76
2023/09/09 00:48:46;;;;;;;0.00;0.00;;;;;;;;;;4869360;29;20063;-75
2023/09/09 00:51:14;;;;;;;0.28;0.28;;;;;;;;;;4851499;29;20049;-76
2023/09/09 00:53:42;;;;;;;0.22;0.22;;;;;;;;;;4849691;29;20066;-75
2023/09/09 00:56:09;;;;;;;0.10;0.10;;;;;;;;;;4848613;29;20499;-76
2023/09/09 00:58:37;;;;;;;0.40;0.30;;;;;;;;;;4841601;29;20041;-75
2023/09/09 01:01:05;;;;;;;0.17;0.17;;;;;;;;;;4871399;29;20132;-76
2023/09/09 01:03:33;;;;;;;0.70;0.70;;;;;;;;;;4866093;29;20056;-76
2023/09/09 01:06:02;;;;;;;0.38;0.38;;;;;;;;;;4869240;29;20333;-76
2023/09/09 01:08:30;;;;;;;0.22;0.20;;;;;;;;;;4861006;29;20049;-76
2023/09/09 01:10:58;;;;;;;1.48;0.35;;;;;;;;;;4859572;29;20049;-76
2023/09/09 01:13:26;;;;;;;106.25;99.18;;;;;;;;;;4845348;29;20045;-76
2023/09/09 01:15:53;;;;;;;30.13;28.15;;;;;;;;;;4871456;23;20049;-74
2023/09/09 01:18:21;;;;;;;30.33;28.63;;;;;;;;;;4870499;29;20406;-72
2023/09/09 01:21:02;;;;;;;8.32;7.88;;;;;;;;;;4867388;29;20053;-73
2023/09/09 01:23:29;;;;;;;3.13;2.97;;;;;;;;;;4867660;29;20429;-73
2023/09/09 01:25:57;;;;;;;0.30;0.30;;;;;;;;;;4866997;29;20057;-73
2023/09/09 01:28:24;;;;;;;0.20;0.20;;;;;;;;;;4867062;29;20108;-72
2023/09/09 01:30:52;;;;;;;0.32;0.32;;;;;;;;;;4883323;29;20049;-71
2023/09/09 01:33:19;;;;;;;0.65;0.65;;;;;;;;;;4870546;29;20061;-72
2023/09/09 01:35:47;;;;;;;0.20;0.20;;;;;;;;;;4868639;29;20061;-73
2023/09/09 01:38:14;;;;;;;0.03;0.03;;;;;;;;;;4869343;29;20082;-72
2023/09/09 01:40:42;;;;;;;0.00;0.00;;;;;;;;;;4884390;29;20056;-73
2023/09/09 01:43:09;;;;;;;0.10;0.10;;;;;;;;;;4886029;29;20056;-72
2023/09/09 01:45:38;;;;;;;0.00;0.00;;;;;;;;;;4870813;29;20491;-73
2023/09/09 01:48:06;;;;;;;0.00;0.00;;;;;;;;;;4883723;29;20045;-73
2023/09/09 01:50:34;;;;;;;0.00;0.00;;;;;;;;;;4865739;29;20109;-72
2023/09/09 01:53:03;;;;;;;0.10;0.10;;;;;;;;;;4884569;29;20500;-72
2023/09/09 01:55:31;;;;;;;0.00;0.00;;;;;;;;;;4869580;29;20136;-73
2023/09/09 01:57:58;;;;;;;0.00;0.00;;;;;;;;;;4864791;29;20053;-73
2023/09/09 02:00:27;;;;;;;0.00;0.00;;;;;;;;;;4868804;29;20052;-72
2023/09/09 02:02:55;;;;;;;0.10;0.10;;;;;;;;;;4872256;29;20056;-73
2023/09/09 02:05:23;;;;;;;0.00;0.00;;;;;;;;;;4888322;29;20049;-73
2023/09/09 02:07:51;;;;;;;0.55;0.17;;;;;;;;;;4868318;29;20124;-72
2023/09/09 02:10:18;;;;;;;0.00;0.00;;;;;;;;;;4872945;29;20272;-73
2023/09/09 02:12:46;;;;;;;0.05;0.05;;;;;;;;;;4871770;29;20061;-72
2023/09/09 02:15:14;;;;;;;0.15;0.15;;;;;;;;;;4885272;29;20049;-72
2023/09/09 02:17:41;;;;;;;0.00;0.00;;;;;;;;;;4887531;29;20400;-72
2023/09/09 02:20:09;;;;;;;0.00;0.00;;;;;;;;;;4872928;29;20045;-73
2023/09/09 02:22:37;;;;;;;0.85;0.85;;;;;;;;;;4886411;29;20414;-73
2023/09/09 02:25:05;;;;;;;0.00;0.00;;;;;;;;;;4886888;29;20084;-73
2023/09/09 02:27:32;;;;;;;0.00;0.00;;;;;;;;;;4886215;29;20155;-73
2023/09/09 02:30:01;;;;;;;0.00;0.00;;;;;;;;;;4873561;29;20056;-73
2023/09/09 02:32:29;;;;;;;1.65;1.55;;;;;;;;;;4866631;29;20045;-74
2023/09/09 02:34:57;;;;;;;0.10;0.10;;;;;;;;;;4870297;29;20071;-73
2023/09/09 02:37:26;;;;;;;5.63;3.92;;;;;;;;;;4882955;29;20117;-74
2023/09/09 02:39:54;;;;;;;4.75;2.10;;;;;;;;;;4884105;29;20135;-73
2023/09/09 02:42:23;;;;;;;33.05;29.63;;;;;;;;;;4886158;29;20105;-74
2023/09/09 02:44:50;;;;;;;0.10;0.10;;;;;;;;;;4872704;29;20415;-74
2023/09/09 02:47:18;;;;;;;2.65;2.55;;;;;;;;;;4884278;29;20037;-73
2023/09/09 02:49:49;;;;;;;0.00;0.00;;;;;;;;;;4870975;29;20053;-73
2023/09/09 02:52:17;;;;;;;0.63;0.63;;;;;;;;;;4869727;29;20137;-73
2023/09/09 02:54:44;;;;;;;2.63;2.53;;;;;;;;;;4864309;29;20056;-73
2023/09/09 02:57:13;;;;;;;5.07;4.85;;;;;;;;;;4881062;29;20691;-73
2023/09/09 02:59:40;;;;;;;2.22;1.85;;;;;;;;;;4884451;29;20428;-73
2023/09/09 03:02:11;;;;;;;0.63;0.63;;;;;;;;;;4884013;29;20045;-73
2023/09/09 03:04:39;;;;;;;0.47;0.47;;;;;;;;;;4884696;29;20553;-73
2023/09/09 03:07:06;;;;;;;0.15;0.15;;;;;;;;;;4882650;29;20159;-74
2023/09/09 03:09:35;;;;;;;1.00;1.00;;;;;;;;;;4884533;29;20582;-73
2023/09/09 03:12:05;;;;;;;0.30;0.30;;;;;;;;;;4883967;29;20077;-74
2023/09/09 03:14:33;;;;;;;1.08;0.73;;;;;;;;;;4882445;29;20053;-73
2023/09/09 03:17:00;;;;;;;1.08;1.08;;;;;;;;;;4868013;29;20381;-73
2023/09/09 03:19:29;;;;;;;0.38;0.38;;;;;;;;;;4865177;29;20526;-73
2023/09/09 03:21:57;;;;;;;0.00;0.00;;;;;;;;;;4866760;29;20041;-73
2023/09/09 03:24:25;;;;;;;0.10;0.10;;;;;;;;;;4874002;29;20053;-73
2023/09/09 03:26:53;;;;;;;0.45;0.45;;;;;;;;;;4885454;29;20408;-73
2023/09/09 03:29:21;;;;;;;0.00;0.00;;;;;;;;;;4868610;29;20765;-73
2023/09/09 03:31:50;;;;;;;0.52;0.15;;;;;;;;;;4872539;29;20478;-73
2023/09/09 03:34:18;;;;;;;0.95;0.95;;;;;;;;;;4887041;29;20048;-73
2023/09/09 03:36:47;;;;;;;0.20;0.20;;;;;;;;;;4886062;29;20072;-73
2023/09/09 03:39:15;;;;;;;3.22;1.98;;;;;;;;;;4883490;29;20045;-73
2023/09/09 03:41:42;;;;;;;0.30;0.22;;;;;;;;;;4885343;29;20049;-73
2023/09/09 03:44:10;;;;;;;34.55;31.90;;;;;;;;;;4871229;29;20048;-73
2023/09/09 03:46:37;;;;;;;15.52;14.65;;;;;;;;;;4870202;29;20324;-73
2023/09/09 03:49:05;;;;;;;52.35;49.30;;;;;;;;;;4867620;29;20049;-73
2023/09/09 03:51:33;;;;;;;6.97;6.60;;;;;;;;;;4884961;29;20044;-73
2023/09/09 03:54:01;;;;;;;0.45;0.45;;;;;;;;;;4866958;29;20118;-73
2023/09/09 03:56:29;;;;;;;0.08;0.08;;;;;;;;;;4886132;29;20048;-73
2023/09/09 03:58:56;;;;;;;0.25;0.20;;;;;;;;;;4885745;29;20139;-74
2023/09/09 04:01:25;;;;;;;0.10;0.10;;;;;;;;;;4886300;29;20049;-73
2023/09/09 04:03:53;;;;;;;0.00;0.00;;;;;;;;;;4872184;29;20067;-73
2023/09/09 04:06:21;;;;;;;0.32;0.32;;;;;;;;;;4886040;29;20351;-73
2023/09/09 04:08:55;;;;;;;1.02;1.02;;;;;;;;;;4869986;29;20057;-73
2023/09/09 04:11:23;;;;;;;0.10;0.10;;;;;;;;;;4883968;29;20052;-73
2023/09/09 04:13:50;;;;;;;1.55;1.35;;;;;;;;;;4886224;29;20053;-73
2023/09/09 04:16:18;;;;;;;0.00;0.00;;;;;;;;;;4886606;29;20076;-73
2023/09/09 04:18:46;;;;;;;0.10;0.10;;;;;;;;;;4885743;29;20571;-73
2023/09/09 04:21:16;;;;;;;0.00;0.00;;;;;;;;;;4886201;29;20055;-73
2023/09/09 04:23:44;;;;;;;0.00;0.00;;;;;;;;;;4869532;29;20056;-73
2023/09/09 04:26:11;;;;;;;0.25;0.25;;;;;;;;;;4867928;29;20058;-73
2023/09/09 04:28:40;;;;;;;0.20;0.20;;;;;;;;;;4864431;29;20048;-73
2023/09/09 04:31:07;;;;;;;2.90;2.53;;;;;;;;;;4867964;29;20049;-73
2023/09/09 04:33:38;;;;;;;0.00;0.00;;;;;;;;;;4881865;29;20072;-73
2023/09/09 04:36:07;;;;;;;0.43;0.43;;;;;;;;;;4882248;29;20488;-73
2023/09/09 04:38:35;;;;;;;0.47;0.45;;;;;;;;;;4883748;29;20528;-73
2023/09/09 04:41:02;;;;;;;0.40;0.40;;;;;;;;;;4879425;29;20427;-73
2023/09/09 04:43:30;;;;;;;0.00;0.00;;;;;;;;;;4885972;29;20056;-73
2023/09/09 04:45:57;;;;;;;0.10;0.10;;;;;;;;;;4867935;29;20625;-73
2023/09/09 04:48:25;;;;;;;0.00;0.00;;;;;;;;;;4862777;29;20048;-73
2023/09/09 04:50:53;;;;;;;0.35;0.35;;;;;;;;;;4882871;29;20101;-73
2023/09/09 04:53:21;;;;;;;0.77;0.38;;;;;;;;;;4867473;29;20053;-73
2023/09/09 04:55:49;;;;;;;0.00;0.00;;;;;;;;;;4882768;29;20045;-73
2023/09/09 04:58:16;;;;;;;0.15;0.15;;;;;;;;;;4869804;29;20072;-73
2023/09/09 05:00:44;;;;;;;0.30;0.30;;;;;;;;;;4876476;29;20139;-74
2023/09/09 05:03:12;;;;;;;0.03;0.03;;;;;;;;;;4884746;29;20140;-73
2023/09/09 05:05:39;;;;;;;0.00;0.00;;;;;;;;;;4869343;29;20136;-73
2023/09/09 05:08:07;;;;;;;24.75;23.20;;;;;;;;;;4869855;29;20059;-73
2023/09/09 05:10:34;;;;;;;0.50;0.50;;;;;;;;;;4884846;29;20104;-74
2023/09/09 05:13:04;;;;;;;6.90;6.57;;;;;;;;;;4884508;29;20053;-73
2023/09/09 05:15:33;;;;;;;4.18;3.50;;;;;;;;;;4871094;29;20511;-73
2023/09/09 05:18:00;;;;;;;0.10;0.10;;;;;;;;;;4869652;29;20400;-73
2023/09/09 05:20:28;;;;;;;0.40;0.30;;;;;;;;;;4870296;29;20084;-73
2023/09/09 05:22:55;;;;;;;0.38;0.38;;;;;;;;;;4867591;29;20081;-74
2023/09/09 05:25:23;;;;;;;20.13;18.77;;;;;;;;;;4866878;29;20048;-74
2023/09/09 05:27:51;;;;;;;5.60;1.27;;;;;;;;;;4868411;29;20053;-73
2023/09/09 05:30:19;;;;;;;0.60;0.60;;;;;;;;;;4885006;29;20048;-73
2023/09/09 05:32:47;;;;;;;1.38;1.33;;;;;;;;;;4884587;29;20059;-72
2023/09/09 05:35:14;;;;;;;0.00;0.00;;;;;;;;;;4868765;29;20049;-73
2023/09/09 05:37:42;;;;;;;0.50;0.30;;;;;;;;;;4883619;29;20098;-73
2023/09/09 05:40:11;;;;;;;0.10;0.10;;;;;;;;;;4883136;29;20056;-73
2023/09/09 05:42:39;;;;;;;0.47;0.47;;;;;;;;;;4883241;29;20056;-74
2023/09/09 05:45:08;;;;;;;0.52;0.52;;;;;;;;;;4885226;29;20052;-73
2023/09/09 05:47:36;;;;;;;0.57;0.57;;;;;;;;;;4883698;29;20503;-73
2023/09/09 05:50:05;;;;;;;0.30;0.30;;;;;;;;;;4883127;29;20045;-73
2023/09/09 05:52:33;;;;;;;0.00;0.00;;;;;;;;;;4877376;29;20193;-74
2023/09/09 05:55:01;;;;;;;14.13;12.95;;;;;;;;;;4883431;29;20049;-73
2023/09/09 05:57:32;;;;;;;0.55;0.52;;;;;;;;;;4880701;29;20085;-73
2023/09/09 05:59:59;;;;;;;0.00;0.00;;;;;;;;;;4866728;29;20053;-73
2023/09/09 06:02:27;;;;;;;0.57;0.57;;;;;;;;;;4877784;29;20045;-73
2023/09/09 06:04:55;;;;;;;0.10;0.10;;;;;;;;;;4867520;29;20125;-73
2023/09/09 06:07:23;;;;;;;7.40;6.70;;;;;;;;;;4879072;29;20041;-73
2023/09/09 06:09:50;;;;;;;0.00;0.00;;;;;;;;;;4866558;29;20499;-73
2023/09/09 06:12:18;;;;;;;0.00;0.00;;;;;;;;;;4867748;29;20522;-73
2023/09/09 06:14:46;;;;;;;0.03;0.03;;;;;;;;;;4880356;29;20076;-73
2023/09/09 06:17:13;;;;;;;0.10;0.10;;;;;;;;;;4883091;29;20053;-73
2023/09/09 06:19:43;;;;;;;0.17;0.17;;;;;;;;;;4864283;29;20133;-73
2023/09/09 06:22:11;;;;;;;24.35;22.45;;;;;;;;;;4870587;29;20044;-73
2023/09/09 06:24:38;;;;;;;0.10;0.10;;;;;;;;;;4869026;29;20411;-73
2023/09/09 06:27:06;;;;;;;0.32;0.32;;;;;;;;;;4869899;29;20507;-73
2023/09/09 06:29:33;;;;;;;0.15;0.15;;;;;;;;;;4868819;29;20068;-74
2023/09/09 06:32:03;;;;;;;0.20;0.20;;;;;;;;;;4880074;29;20049;-73
2023/09/09 06:34:31;;;;;;;0.00;0.00;;;;;;;;;;4870372;29;20097;-73
2023/09/09 06:36:58;;;;;;;10.25;9.70;;;;;;;;;;4861685;29;20063;-73
2023/09/09 06:39:26;;;;;;;0.17;0.17;;;;;;;;;;4865459;29;20048;-72
2023/09/09 06:41:53;;;;;;;0.28;0.15;;;;;;;;;;4869478;29;20049;-72
2023/09/09 06:44:25;;;;;;;0.20;0.20;;;;;;;;;;4885279;29;20124;-72
2023/09/09 06:46:53;;;;;;;3.85;3.65;;;;;;;;;;4872368;29;20056;-73
2023/09/09 06:49:21;;;;;;;0.00;0.00;;;;;;;;;;4873928;29;20496;-73
2023/09/09 06:51:48;;;;;;;0.00;0.00;;;;;;;;;;4872599;29;20083;-73
2023/09/09 06:54:15;;;;;;;6.97;6.60;;;;;;;;;;4866529;29;20057;-73
2023/09/09 06:56:43;;;;;;;0.20;0.20;;;;;;;;;;4870010;29;20056;-73
2023/09/09 06:59:10;;;;;;;7.57;6.90;;;;;;;;;;4870327;29;20060;-73
2023/09/09 07:01:37;;;;;;;0.30;0.30;;;;;;;;;;4866688;29;20053;-72
2023/09/09 07:04:05;;;;;;;9.40;8.55;;;;;;;;;;4867038;29;20104;-73
2023/09/09 07:06:33;;;;;;;0.15;0.15;;;;;;;;;;4861461;29;20141;-73
2023/09/09 07:09:01;;;;;;;6.82;0.98;;;;;;;;;;4870032;29;20045;-73
2023/09/09 07:11:28;;;;;;;0.00;0.00;;;;;;;;;;4867389;29;20129;-73
2023/09/09 07:13:56;;;;;;;0.08;0.08;;;;;;;;;;4866580;29;20084;-73
2023/09/09 07:16:23;;;;;;;0.38;0.38;;;;;;;;;;4891738;23;20411;-77
2023/09/09 07:18:51;;;;;;;0.30;0.30;;;;;;;;;;4868672;29;20049;-76
2023/09/09 07:21:18;;;;;;;0.40;0.38;;;;;;;;;;4887483;29;20059;-76
2023/09/09 07:23:46;;;;;;;0.28;0.28;;;;;;;;;;4886784;29;20052;-77
2023/09/09 07:26:13;;;;;;;0.00;0.00;;;;;;;;;;4880383;29;20060;-76
2023/09/09 07:28:41;;;;;;;0.20;0.20;;;;;;;;;;4883689;29;20056;-77
2023/09/09 07:31:09;;;;;;;0.00;0.00;;;;;;;;;;4886189;29;20056;-77
2023/09/09 07:33:36;;;;;;;0.00;0.00;;;;;;;;;;4890231;29;20044;-77
2023/09/09 07:36:04;;;;;;;0.13;0.13;;;;;;;;;;4882619;29;20052;-77
2023/09/09 07:38:32;;;;;;;0.10;0.10;;;;;;;;;;4883165;29;20063;-77
2023/09/09 07:41:01;;;;;;;0.55;0.30;;;;;;;;;;4889020;29;20044;-77
2023/09/09 07:43:29;;;;;;;0.10;0.10;;;;;;;;;;4887377;29;20041;-77
2023/09/09 07:45:56;;;;;;;0.00;0.00;;;;;;;;;;4885398;29;20055;-77
2023/09/09 07:48:24;;;;;;;0.30;0.30;;;;;;;;;;4868640;29;20411;-78
2023/09/09 07:50:55;;;;;;;0.30;0.30;;;;;;;;;;4871193;29;20195;-76
2023/09/09 07:53:23;;;;;;;;;;;;;;;;;;4877012;29;20133;-77
2023/09/09 07:55:51;;;;;;;0.10;0.10;;;;;;;;;;4883286;29;19928;-77
2023/09/09 07:58:19;;;;;;;0.30;0.30;;;;;;;;;;4884289;29;20443;-77
2023/09/09 08:00:47;;;;;;;0.17;0.17;;;;;;;;;;4886822;29;20459;-77
2023/09/09 08:03:14;;;;;;;0.17;0.17;;;;;;;;;;4883228;29;20419;-77
2023/09/09 08:05:42;;;;;;;0.25;0.25;;;;;;;;;;4867969;29;20057;-77
2023/09/09 08:08:10;;;;;;;5.00;4.57;;;;;;;;;;4890031;29;20048;-76
2023/09/09 08:10:38;;;;;;;1.48;1.38;;;;;;;;;;4890994;29;20578;-77
2023/09/09 08:13:05;;;;;;;0.00;0.00;;;;;;;;;;4883032;29;20044;-77
2023/09/09 08:15:33;;;;;;;0.00;0.00;;;;;;;;;;4894641;29;20048;-77
2023/09/09 08:18:08;;;;;;;0.10;0.10;;;;;;;;;;4890398;29;20052;-77
2023/09/09 08:20:35;;;;;;;0.38;0.38;;;;;;;;;;4888331;29;20048;-76
2023/09/09 08:23:03;;;;;;;0.00;0.00;;;;;;;;;;4881961;29;20276;-77
2023/09/09 08:25:33;;;;;;;0.00;0.00;;;;;;;;;;4885552;29;20175;-78
2023/09/09 08:28:03;;;;;;;0.40;0.40;;;;;;;;;;4884717;29;20101;-77
2023/09/09 08:30:31;;;;;;;1.77;1.75;;;;;;;;;;4882872;29;20079;-77
2023/09/09 08:32:59;;;;;;;0.32;0.32;;;;;;;;;;4850856;29;20045;-77
2023/09/09 08:35:26;;;;;;;13.80;12.57;;;;;;;;;;4881457;29;20435;-77
2023/09/09 08:37:54;;;;;;;0.00;0.00;;;;;;;;;;4883045;29;20051;-76
2023/09/09 08:40:21;;;;;;;0.10;0.10;;;;;;;;;;4878575;29;20052;-76
2023/09/09 08:42:56;;;;;;;0.00;0.00;;;;;;;;;;4881619;29;20056;-76
2023/09/09 08:45:43;;;;;;;0.47;0.40;;;;;;;;;;4863365;29;20060;-75
2023/09/09 08:48:13;;;;;;;0.28;0.28;;;;;;;;;;4880548;29;20041;-76
2023/09/09 08:50:42;;;;;;;0.52;0.52;;;;;;;;;;4862545;29;20544;-76
2023/09/09 08:53:13;;;;;;;4.97;4.68;;;;;;;;;;4880420;29;20095;-76
2023/09/09 08:55:41;;;;;;;0.10;0.10;;;;;;;;;;4881828;29;20059;-76
2023/09/09 08:58:09;;;;;;;0.15;0.15;;;;;;;;;;4880760;29;20061;-77
2023/09/09 09:00:37;;;;;;;0.30;0.30;;;;;;;;;;4877471;29;20507;-76
2023/09/09 09:03:05;;;;;;;0.38;0.38;;;;;;;;;;4888952;29;20140;-76
2023/09/09 09:05:33;;;;;;;0.10;0.10;;;;;;;;;;4862945;29;20052;-76
2023/09/09 09:08:01;;;;;;;0.20;0.20;;;;;;;;;;4876277;29;20059;-76
2023/09/09 09:10:29;;;;;;;0.20;0.20;;;;;;;;;;4886141;29;20071;-74
2023/09/09 09:12:56;;;;;;;0.35;0.35;;;;;;;;;;4883672;29;20048;-78
2023/09/09 09:15:24;;;;;;;0.28;0.28;;;;;;;;;;4885132;29;20056;-77
2023/09/09 09:17:53;;;;;;;0.03;0.03;;;;;;;;;;4884943;29;20061;-77
2023/09/09 09:20:25;;;;;;;0.20;0.20;;;;;;;;;;4860412;29;20053;-76
2023/09/09 09:22:53;;;;;;;0.00;0.00;;;;;;;;;;4884908;29;20131;-77
2023/09/09 09:25:21;;;;;;;0.00;0.00;;;;;;;;;;4884701;29;20534;-76
2023/09/09 09:27:49;;;;;;;0.00;0.00;;;;;;;;;;4878635;29;20169;-77
2023/09/09 09:30:23;;;;;;;0.52;0.52;;;;;;;;;;4888975;29;20049;-77
2023/09/09 09:32:55;;;;;;;0.00;0.00;;;;;;;;;;4876837;29;20057;-77
2023/09/09 09:35:23;;;;;;;0.10;0.10;;;;;;;;;;4884399;29;20076;-77
2023/09/09 09:37:52;;;;;;;0.20;0.20;;;;;;;;;;4876734;29;20100;-76
2023/09/09 09:40:20;;;;;;;0.52;0.20;;;;;;;;;;4881599;29;20127;-78
2023/09/09 09:42:47;;;;;;;0.52;0.52;;;;;;;;;;4877797;29;20063;-78
2023/09/09 09:45:15;;;;;;;0.22;0.22;;;;;;;;;;4887872;29;20045;-78
2023/09/09 09:47:50;;;;;;;0.10;0.10;;;;;;;;;;4881533;29;20044;-77
2023/09/09 09:50:19;;;;;;;0.52;0.40;;;;;;;;;;4887810;29;20062;-78
2023/09/09 09:52:56;;;;;;;0.00;0.00;;;;;;;;;;4873062;29;20057;-77
2023/09/09 09:55:24;;;;;;;0.03;0.03;;;;;;;;;;4891605;29;20598;-78
2023/09/09 09:57:54;;;;;;;0.43;0.43;;;;;;;;;;4888965;29;20059;-78
2023/09/09 10:00:23;;;;;;;0.10;0.10;;;;;;;;;;4893008;29;20151;-78
2023/09/09 10:02:54;;;;;;;0.20;0.20;;;;;;;;;;4884454;29;20055;-77
2023/09/09 10:05:23;;;;;;;0.00;0.00;;;;;;;;;;4883154;29;20121;-78
2023/09/09 10:07:51;;;;;;;0.32;0.32;;;;;;;;;;4884087;29;20107;-78
2023/09/09 10:10:20;;;;;;;0.00;0.00;;;;;;;;;;4888389;29;20041;-77
2023/09/09 10:13:10;;;;;;;0.63;0.63;;;;;;;;;;4881218;29;20059;-78
2023/09/09 10:15:38;;;;;;;0.00;0.00;;;;;;;;;;4880512;29;20067;-77
2023/09/09 10:18:15;;;;;;;0.47;0.15;;;;;;;;;;4887367;29;20056;-77
2023/09/09 10:20:43;;;;;;;0.10;0.10;;;;;;;;;;4884942;29;20108;-75
2023/09/09 10:23:12;;;;;;;1.25;1.25;;;;;;;;;;4877730;29;20508;-75
2023/09/09 10:25:42;;;;;;;0.10;0.10;;;;;;;;;;4887169;29;20052;-77
2023/09/09 10:28:11;;;;;;;0.07;0.07;;;;;;;;;;4882377;29;20147;-77
2023/09/09 10:30:39;;;;;;;0.00;0.00;;;;;;;;;;4886392;29;20695;-78
2023/09/09 10:33:08;;;;;;;0.15;0.15;;;;;;;;;;4883981;29;20052;-75
2023/09/09 10:35:37;;;;;;;0.10;0.10;;;;;;;;;;4879410;29;20060;-78
2023/09/09 10:38:05;;;;;;;0.13;0.13;;;;;;;;;;4887031;29;20084;-77
2023/09/09 10:40:33;;;;;;;0.35;0.35;;;;;;;;;;4880786;29;20051;-77
2023/09/09 10:43:00;;;;;;;0.10;0.10;;;;;;;;;;4888727;29;20064;-76
2023/09/09 10:45:29;;;;;;;0.30;0.30;;;;;;;;;;4891576;29;20131;-77
2023/09/09 10:48:04;;;;;;;0.00;0.00;;;;;;;;;;4894213;29;20056;-77
2023/09/09 10:50:45;;;;;;;1.23;1.23;;;;;;;;;;4878476;29;20056;-77
2023/09/09 10:53:16;;;;;;;0.13;0.13;;;;;;;;;;4876999;29;20055;-76
2023/09/09 10:55:44;;;;;;;0.13;0.13;;;;;;;;;;4892251;29;20056;-77
2023/09/09 10:58:15;;;;;;;0.00;0.00;;;;;;;;;;4870480;29;20052;-77
2023/09/09 11:00:44;;;;;;;0.28;0.28;;;;;;;;;;4895338;29;20072;-76
2023/09/09 11:03:11;;;;;;;0.00;0.00;;;;;;;;;;4882776;29;20447;-75
2023/09/09 11:05:58;;;;;;;0.10;0.10;;;;;;;;;;4879976;29;20044;-76
2023/09/09 11:08:32;;;;;;;0.00;0.00;;;;;;;;;;4865669;29;20135;-76
2023/09/09 11:11:19;;;;;;;0.00;0.00;;;;;;;;;;4879118;29;20056;-76
2023/09/09 11:14:00;;;;;;;0.22;0.22;;;;;;;;;;4881334;29;20048;-76
2023/09/09 11:16:35;;;;;;;1.25;0.20;;;;;;;;;;4880737;29;20071;-75
2023/09/09 11:19:07;;;;;;;0.30;0.30;;;;;;;;;;4888295;29;20140;-76
2023/09/09 11:21:55;;;;;;;0.00;0.00;;;;;;;;;;4867218;29;20070;-76
2023/09/09 11:24:22;;;;;;;0.30;0.30;;;;;;;;;;4870043;29;20551;-76
2023/09/09 11:26:55;;;;;;;0.35;0.17;;;;;;;;;;4868328;29;20520;-75
2023/09/09 11:29:23;;;;;;;0.13;0.13;;;;;;;;;;4883865;29;20044;-76
2023/09/09 11:32:09;;;;;;;0.10;0.10;;;;;;;;;;4881261;29;20513;-74
2023/09/09 11:34:37;;;;;;;0.00;0.00;;;;;;;;;;4888660;29;20052;-74
2023/09/09 11:37:05;;;;;;;0.10;0.10;;;;;;;;;;4880678;29;20590;-74
2023/09/09 11:39:39;;;;;;;4.38;2.20;;;;;;;;;;4892240;29;20053;-76
2023/09/09 11:42:07;;;;;;;0.00;0.00;;;;;;;;;;4875493;29;20482;-75
2023/09/09 11:44:41;;;;;;;0.00;0.00;;;;;;;;;;4874391;29;20068;-75
2023/09/09 11:47:09;;;;;;;0.00;0.00;;;;;;;;;;4885670;29;20064;-76
2023/09/09 11:49:40;;;;;;;0.15;0.15;;;;;;;;;;4878712;29;20049;-75
2023/09/09 11:52:08;;;;;;;1.02;1.02;;;;;;;;;;4880645;29;20049;-75
2023/09/09 11:54:36;;;;;;;0.10;0.10;;;;;;;;;;4877139;29;20056;-75
2023/09/09 11:57:07;;;;;;;0.00;0.00;;;;;;;;;;4882837;29;20052;-75
2023/09/09 11:59:48;;;;;;;0.08;0.08;;;;;;;;;;4884882;29;20080;-76
2023/09/09 12:02:18;;;;;;;0.52;0.47;;;;;;;;;;4879286;29;20586;-75
2023/09/09 12:04:53;;;;;;;0.98;0.98;;;;;;;;;;4883074;29;20132;-75
2023/09/09 12:07:22;;;;;;;0.10;0.10;;;;;;;;;;4887088;29;20072;-75
2023/09/09 12:09:50;;;;;;;0.08;0.08;;;;;;;;;;4882823;29;20124;-77
2023/09/09 12:12:18;;;;;;;0.10;0.10;;;;;;;;;;4879131;29;20486;-75
2023/09/09 12:14:46;;;;;;;0.10;0.10;;;;;;;;;;4869755;29;20049;-76
2023/09/09 12:17:14;;;;;;;0.00;0.00;;;;;;;;;;4883893;29;20047;-75
2023/09/09 12:19:41;;;;;;;0.30;0.30;;;;;;;;;;4882031;29;20128;-77
2023/09/09 12:22:09;;;;;;;0.00;0.00;;;;;;;;;;4859820;29;20078;-76
2023/09/09 12:24:40;;;;;;;0.20;0.20;;;;;;;;;;4878920;29;20063;-76
2023/09/09 12:27:08;;;;;;;0.00;0.00;;;;;;;;;;4877351;29;20059;-76
2023/09/09 12:29:45;;;;;;;0.00;0.00;;;;;;;;;;4879824;29;20556;-76
2023/09/09 12:32:12;;;;;;;0.20;0.20;;;;;;;;;;4876674;29;20060;-76
2023/09/09 12:34:43;;;;;;;1.95;1.85;;;;;;;;;;4875212;29;20056;-76
2023/09/09 12:37:11;;;;;;;0.00;0.00;;;;;;;;;;4880193;29;20412;-76
2023/09/09 12:39:38;;;;;;;1.40;0.68;;;;;;;;;;4886806;29;20056;-76
2023/09/09 12:42:07;;;;;;;0.00;0.00;;;;;;;;;;4875197;29;20518;-76
2023/09/09 12:44:55;;;;;;;0.00;0.00;;;;;;;;;;4885259;29;20115;-77
2023/09/09 12:47:23;;;;;;;0.00;0.00;;;;;;;;;;4887001;29;20058;-76
2023/09/09 12:49:52;;;;;;;0.00;0.00;;;;;;;;;;4881050;29;20558;-76
2023/09/09 12:52:19;;;;;;;0.00;0.00;;;;;;;;;;4877843;29;20407;-76
2023/09/09 12:54:47;;;;;;;0.20;0.00;;;;;;;;;;4873078;29;20108;-77
2023/09/09 12:57:14;;;;;;;0.57;0.57;;;;;;;;;;4870700;29;20052;-77
2023/09/09 12:59:42;;;;;;;0.10;0.10;;;;;;;;;;4876016;29;20048;-76
2023/09/09 13:02:09;;;;;;;0.00;0.00;;;;;;;;;;4883661;29;20210;-76
2023/09/09 13:04:37;;;;;;;0.00;0.00;;;;;;;;;;4869947;29;20060;-76
2023/09/09 13:07:05;;;;;;;0.00;0.00;;;;;;;;;;4881222;29;20071;-75
2023/09/09 13:09:33;;;;;;;0.00;0.00;;;;;;;;;;4874192;29;20052;-76
2023/09/09 13:12:00;;;;;;;1.25;1.25;;;;;;;;;;4871515;29;20507;-76
2023/09/09 13:14:28;;;;;;;0.00;0.00;;;;;;;;;;4890114;29;20052;-75
2023/09/09 13:16:55;;;;;;;0.15;0.13;;;;;;;;;;4908962;23;20518;-70
2023/09/09 13:19:23;;;;;;;2.33;2.08;;;;;;;;;;4905771;29;20083;-69
2023/09/09 13:21:56;;;;;;;0.25;0.25;;;;;;;;;;4893167;29;20132;-68
2023/09/09 13:24:23;;;;;;;0.17;0.17;;;;;;;;;;4885280;29;20495;-69
2023/09/09 13:26:50;;;;;;;0.00;0.00;;;;;;;;;;4892698;29;20052;-68
2023/09/09 13:29:18;;;;;;;1.73;0.98;;;;;;;;;;4890491;29;20123;-68
2023/09/09 13:31:45;;;;;;;0.57;0.57;;;;;;;;;;4901826;29;20052;-69
2023/09/09 13:34:13;;;;;;;0.43;0.30;;;;;;;;;;4894299;29;20057;-69
2023/09/09 13:36:41;;;;;;;0.10;0.10;;;;;;;;;;4876455;29;20420;-71
2023/09/09 13:39:08;;;;;;;0.00;0.00;;;;;;;;;;4888494;29;20053;-69
2023/09/09 13:41:36;;;;;;;0.10;0.10;;;;;;;;;;4893869;29;20252;-70
2023/09/09 13:44:03;;;;;;;0.15;0.15;;;;;;;;;;4902400;29;20071;-69
2023/09/09 13:46:31;;;;;;;0.00;0.00;;;;;;;;;;4895190;29;20047;-70
2023/09/09 13:48:58;;;;;;;0.10;0.10;;;;;;;;;;4901006;29;20040;-69
2023/09/09 13:51:26;;;;;;;0.30;0.30;;;;;;;;;;4892945;29;20051;-70
2023/09/09 13:53:57;;;;;;;;;;;;;;;;;;4889246;29;20054;-69
2023/09/09 13:56:24;;;;;;;0.10;0.10;;;;;;;;;;4900257;29;19989;-68
2023/09/09 13:58:52;;;;;;;0.20;0.20;;;;;;;;;;4898217;29;20079;-69
2023/09/09 14:01:19;;;;;;;0.10;0.10;;;;;;;;;;4903190;29;20054;-69
2023/09/09 14:03:47;;;;;;;0.00;0.00;;;;;;;;;;4902241;29;20570;-69
2023/09/09 14:06:15;;;;;;;1.65;0.98;;;;;;;;;;4898679;29;20059;-70
2023/09/09 14:08:42;;;;;;;0.98;0.52;;;;;;;;;;4899889;29;20045;-69
2023/09/09 14:11:10;;;;;;;2.10;1.88;;;;;;;;;;4898969;29;20048;-70
2023/09/09 14:13:37;;;;;;;0.28;0.28;;;;;;;;;;4895531;29;20872;-69
2023/09/09 14:16:05;;;;;;;0.20;0.20;;;;;;;;;;4892210;29;20100;-71
2023/09/09 14:18:33;;;;;;;1.02;0.88;;;;;;;;;;4903715;29;20194;-70
2023/09/09 14:21:01;;;;;;;0.20;0.20;;;;;;;;;;4905820;29;20044;-70
2023/09/09 14:23:28;;;;;;;0.28;0.28;;;;;;;;;;4900881;29;20443;-70
2023/09/09 14:25:55;;;;;;;0.28;0.28;;;;;;;;;;4900671;29;20143;-70
2023/09/09 14:28:23;;;;;;;0.20;0.20;;;;;;;;;;4901789;29;20507;-70
2023/09/09 14:30:50;;;;;;;0.55;0.30;;;;;;;;;;4905822;29;20047;-70
2023/09/09 14:33:18;;;;;;;0.10;0.10;;;;;;;;;;4907387;29;20519;-69
2023/09/09 14:35:46;;;;;;;0.03;0.03;;;;;;;;;;4902403;29;20055;-70
2023/09/09 14:38:13;;;;;;;0.10;0.10;;;;;;;;;;4886517;29;20058;-68
2023/09/09 14:40:41;;;;;;;0.30;0.30;;;;;;;;;;4903970;29;20056;-73
2023/09/09 14:43:08;;;;;;;12.40;0.90;;;;;;;;;;4905848;29;20071;-73
2023/09/09 14:45:35;;;;;;;0.00;0.00;;;;;;;;;;4911524;29;20048;-73
2023/09/09 14:48:03;;;;;;;0.47;0.47;;;;;;;;;;4912824;29;20410;-73
2023/09/09 14:50:31;;;;;;;0.10;0.10;;;;;;;;;;4908263;29;20128;-72
2023/09/09 14:52:58;;;;;;;0.10;0.10;;;;;;;;;;4905753;29;20052;-75